Time;durP1;ratioP1;P1;durP2;ratioP2;P2;SDS_P1;SDS_P2;PMS_P1;PMS_P2;Temp;Humidity;BMP_temperature;BMP_pressure;BME280_temperature;BME280_humidity;BME280_pressure;Samples;Min_cycle;Max_cycle;Signal;HPM_P1;HPM_P2
2024/02/05 00:01:34;;;;;;;5.75;2.20;;;12.10;96.50;;;;;;5049039;28;20036;-67
2024/02/05 00:04:00;;;;;;;8.80;2.85;;;12.10;96.50;;;;;;5044202;28;20086;-66
2024/02/05 00:06:25;;;;;;;9.70;2.65;;;12.00;96.30;;;;;;5047933;28;20429;-67
2024/02/05 00:08:51;;;;;;;10.48;2.75;;;12.00;96.40;;;;;;5043721;28;20032;-67
2024/02/05 00:11:17;;;;;;;11.43;2.95;;;12.00;96.30;;;;;;5046941;28;20036;-67
2024/02/05 00:13:43;;;;;;;9.25;2.58;;;12.00;96.30;;;;;;5042638;28;20368;-67
2024/02/05 00:16:09;;;;;;;11.85;3.30;;;12.00;96.40;;;;;;5042387;28;20021;-67
2024/02/05 00:18:35;;;;;;;10.00;2.85;;;12.00;96.30;;;;;;5043549;28;20032;-67
2024/02/05 00:21:01;;;;;;;11.20;2.85;;;12.00;96.30;;;;;;5048514;28;20025;-68
2024/02/05 00:23:26;;;;;;;7.75;2.22;;;11.90;96.30;;;;;;5042978;28;20021;-68
2024/02/05 00:25:52;;;;;;;10.68;3.10;;;12.00;96.40;;;;;;5041854;28;20482;-67
2024/02/05 00:28:17;;;;;;;11.88;2.70;;;12.00;96.30;;;;;;5046634;28;20491;-67
2024/02/05 00:30:43;;;;;;;9.57;3.10;;;12.00;96.30;;;;;;5047069;28;20572;-67
2024/02/05 00:33:09;;;;;;;12.73;3.13;;;11.90;96.30;;;;;;5048876;28;20036;-67
2024/02/05 00:35:34;;;;;;;6.53;2.60;;;11.90;96.30;;;;;;5046051;28;20668;-67
2024/02/05 00:38:00;;;;;;;10.32;2.88;;;11.90;96.30;;;;;;5048822;28;20487;-67
2024/02/05 00:40:26;;;;;;;9.98;3.10;;;11.80;96.20;;;;;;5047506;28;20505;-67
2024/02/05 00:42:51;;;;;;;10.30;2.50;;;11.80;96.30;;;;;;5048393;28;20516;-67
2024/02/05 00:45:18;;;;;;;9.75;2.70;;;11.80;96.40;;;;;;5048309;28;20138;-68
2024/02/05 00:47:43;;;;;;;9.07;2.90;;;11.80;96.40;;;;;;5047445;28;20028;-68
2024/02/05 00:50:09;;;;;;;11.10;2.97;;;11.80;96.30;;;;;;5048926;28;20386;-68
2024/02/05 00:52:35;;;;;;;11.45;2.90;;;11.80;96.30;;;;;;5047931;28;20024;-67
2024/02/05 00:55:01;;;;;;;10.57;3.28;;;11.80;96.40;;;;;;5048206;28;20051;-67
2024/02/05 00:57:27;;;;;;;11.75;2.97;;;11.80;96.40;;;;;;5048088;28;20106;-67
2024/02/05 00:59:59;;;;;;;11.05;3.75;;;11.80;96.30;;;;;;5047199;28;20032;-67
2024/02/05 01:02:25;;;;;;;9.07;2.83;;;11.80;96.30;;;;;;5047903;28;20090;-67
2024/02/05 01:04:50;;;;;;;10.75;3.42;;;11.80;96.30;;;;;;5046333;28;20489;-67
2024/02/05 01:07:16;;;;;;;13.82;3.30;;;11.80;96.20;;;;;;5047802;28;20121;-67
2024/02/05 01:09:42;;;;;;;7.57;3.08;;;11.80;96.30;;;;;;5044380;28;20032;-68
2024/02/05 01:12:08;;;;;;;11.02;2.45;;;11.80;96.20;;;;;;5047290;28;20104;-68
2024/02/05 01:14:34;;;;;;;13.63;3.20;;;11.80;96.30;;;;;;5047980;28;20028;-68
2024/02/05 01:17:00;;;;;;;15.57;4.22;;;11.80;96.20;;;;;;5046575;28;20041;-68
2024/02/05 01:19:25;;;;;;;11.52;2.95;;;11.70;96.10;;;;;;5047431;28;20020;-68
2024/02/05 01:21:51;;;;;;;10.00;3.10;;;11.70;96.30;;;;;;5047317;28;20082;-68
2024/02/05 01:24:17;;;;;;;8.88;3.20;;;11.80;96.20;;;;;;5047720;28;20091;-68
2024/02/05 01:26:42;;;;;;;9.15;3.10;;;11.70;96.10;;;;;;5046391;28;20484;-68
2024/02/05 01:29:08;;;;;;;9.95;2.40;;;11.70;96.10;;;;;;5047932;28;20182;-68
2024/02/05 01:31:34;;;;;;;8.73;2.60;;;11.70;96.10;;;;;;5047316;28;20024;-68
2024/02/05 01:34:00;;;;;;;7.00;2.58;;;11.70;96.20;;;;;;5046503;28;20037;-67
2024/02/05 01:36:26;;;;;;;9.15;2.63;;;11.70;96.10;;;;;;5045894;28;20029;-66
2024/02/05 01:38:52;;;;;;;9.45;2.30;;;11.70;96.10;;;;;;5047735;28;20540;-67
2024/02/05 01:41:17;;;;;;;6.80;2.00;;;11.70;96.20;;;;;;5047557;28;20029;-67
2024/02/05 01:43:43;;;;;;;9.43;2.25;;;11.70;96.10;;;;;;5042327;28;20115;-67
2024/02/05 01:46:16;;;;;;;8.40;2.30;;;11.70;96.10;;;;;;5047272;28;20036;-68
2024/02/05 01:48:43;;;;;;;9.77;2.63;;;11.80;96.10;;;;;;5045729;28;20025;-67
2024/02/05 01:51:14;;;;;;;7.13;2.40;;;11.70;96.00;;;;;;5048253;28;20021;-67
2024/02/05 01:53:41;;;;;;;9.27;2.10;;;11.70;96.00;;;;;;5047387;28;20074;-66
2024/02/05 01:56:09;;;;;;;7.43;2.42;;;11.70;96.00;;;;;;5045202;28;20020;-67
2024/02/05 01:58:38;;;;;;;5.15;2.13;;;11.70;96.00;;;;;;5046823;28;20707;-67
2024/02/05 02:01:09;;;;;;;7.38;2.17;;;11.60;96.10;;;;;;5047050;28;20035;-66
2024/02/05 02:03:40;;;;;;;8.25;2.67;;;11.70;96.20;;;;;;5047448;28;20364;-67
2024/02/05 02:06:08;;;;;;;8.95;2.47;;;11.60;96.00;;;;;;5046023;28;20029;-67
2024/02/05 02:08:35;;;;;;;9.07;2.50;;;11.60;96.10;;;;;;5047040;28;20086;-67
2024/02/05 02:11:03;;;;;;;9.77;2.40;;;11.60;96.10;;;;;;5047526;28;20437;-67
2024/02/05 02:13:29;;;;;;;7.03;2.38;;;11.60;96.10;;;;;;5046167;28;20021;-67
2024/02/05 02:15:57;;;;;;;12.77;3.60;;;11.60;96.20;;;;;;5046691;28;20518;-68
2024/02/05 02:18:25;;;;;;;10.05;3.10;;;11.50;96.10;;;;;;5047521;28;20029;-68
2024/02/05 02:20:52;;;;;;;7.28;2.60;;;11.60;96.20;;;;;;5044493;28;20083;-68
2024/02/05 02:23:18;;;;;;;9.70;2.17;;;11.50;96.10;;;;;;5046320;28;20024;-68
2024/02/05 02:25:48;;;;;;;8.30;2.33;;;11.50;96.20;;;;;;5044920;28;20086;-67
2024/02/05 02:28:14;;;;;;;7.75;2.15;;;11.40;96.10;;;;;;5047493;28;20017;-67
2024/02/05 02:30:39;;;;;;;13.65;3.08;;;11.40;96.20;;;;;;5045562;28;20101;-67
2024/02/05 02:33:30;;;;;;;10.52;3.08;;;11.40;96.20;;;;;;5046302;28;20064;-67
2024/02/05 02:36:00;;;;;;;9.60;2.75;;;11.40;96.30;;;;;;5045478;28;20070;-67
2024/02/05 02:38:35;;;;;;;7.47;2.60;;;11.30;96.20;;;;;;5047588;28;20538;-67
2024/02/05 02:41:05;;;;;;;5.20;2.00;;;11.30;96.30;;;;;;5043941;28;20029;-67
2024/02/05 02:43:40;;;;;;;10.15;2.28;;;11.30;96.30;;;;;;5050076;28;20483;-67
2024/02/05 02:46:07;;;;;;;10.23;2.50;;;11.40;96.20;;;;;;5047943;28;20056;-67
2024/02/05 02:48:33;;;;;;;12.20;3.70;;;11.30;96.20;;;;;;5048001;28;20024;-67
2024/02/05 02:50:58;;;;;;;16.02;3.05;;;11.30;96.20;;;;;;5049691;28;20025;-68
2024/02/05 02:53:24;;;;;;;13.18;3.42;;;11.30;96.10;;;;;;5050944;28;20036;-69
2024/02/05 02:55:50;;;;;;;6.38;2.50;;;11.30;96.10;;;;;;5047521;28;20059;-68
2024/02/05 02:58:16;;;;;;;7.05;2.17;;;11.20;96.20;;;;;;5050764;28;20085;-67
2024/02/05 03:00:41;;;;;;;9.32;2.88;;;11.30;96.20;;;;;;5048833;28;20399;-69
2024/02/05 03:03:07;;;;;;;11.15;3.05;;;11.30;96.20;;;;;;5049452;28;20036;-67
2024/02/05 03:05:32;;;;;;;12.57;3.65;;;11.20;96.20;;;;;;5046380;28;20029;-68
2024/02/05 03:07:58;;;;;;;14.73;4.18;;;11.20;96.20;;;;;;5050934;28;20111;-68
2024/02/05 03:10:23;;;;;;;13.55;3.95;;;11.20;96.30;;;;;;5049153;28;20103;-68
2024/02/05 03:12:49;;;;;;;9.88;3.03;;;11.20;96.30;;;;;;5048829;28;20018;-68
2024/02/05 03:15:15;;;;;;;11.55;3.53;;;11.20;96.30;;;;;;5049649;28;20052;-68
2024/02/05 03:17:40;;;;;;;8.95;2.80;;;11.10;96.30;;;;;;5047545;28;20037;-67
2024/02/05 03:20:06;;;;;;;8.52;2.85;;;11.20;96.30;;;;;;5049393;28;20029;-68
2024/02/05 03:22:32;;;;;;;11.85;3.17;;;11.10;96.30;;;;;;5048941;28;20032;-68
2024/02/05 03:24:57;;;;;;;12.60;3.42;;;11.10;96.30;;;;;;5047885;28;20111;-67
2024/02/05 03:27:23;;;;;;;11.77;3.05;;;11.10;96.30;;;;;;5049493;28;20071;-67
2024/02/05 03:29:49;;;;;;;15.02;3.65;;;11.20;96.40;;;;;;5048642;28;20538;-67
2024/02/05 03:32:14;;;;;;;14.13;3.97;;;11.20;96.30;;;;;;5049448;28;20391;-66
2024/02/05 03:34:40;;;;;;;15.43;3.47;;;11.10;96.30;;;;;;5048640;28;20118;-68
2024/02/05 03:37:05;;;;;;;9.77;3.20;;;11.10;96.30;;;;;;5047339;28;20024;-67
2024/02/05 03:39:31;;;;;;;13.10;3.83;;;11.10;96.30;;;;;;5049027;28;20067;-69
2024/02/05 03:41:57;;;;;;;11.02;2.90;;;11.10;96.30;;;;;;5048408;28;20029;-68
2024/02/05 03:44:23;;;;;;;9.38;3.20;;;11.10;96.30;;;;;;5049624;28;20021;-68
2024/02/05 03:46:48;;;;;;;8.85;3.13;;;11.20;96.30;;;;;;5044520;28;20403;-68
2024/02/05 03:49:14;;;;;;;10.95;3.03;;;11.20;96.30;;;;;;5049164;28;20064;-67
2024/02/05 03:51:39;;;;;;;13.13;3.45;;;11.20;96.30;;;;;;5049493;28;20040;-68
2024/02/05 03:54:05;;;;;;;10.80;3.40;;;11.20;96.30;;;;;;5049549;28;20025;-67
2024/02/05 03:56:31;;;;;;;8.98;3.00;;;11.20;96.30;;;;;;5047228;28;20051;-68
2024/02/05 03:58:57;;;;;;;12.32;3.42;;;11.20;96.30;;;;;;5047944;28;20479;-68
2024/02/05 04:01:23;;;;;;;9.40;2.80;;;11.20;96.20;;;;;;5049430;28;20487;-67
2024/02/05 04:03:49;;;;;;;12.65;3.20;;;11.20;96.30;;;;;;5049760;28;20431;-67
2024/02/05 04:06:14;;;;;;;7.43;2.40;;;11.20;96.20;;;;;;5048657;28;20164;-68
2024/02/05 04:08:40;;;;;;;14.35;3.45;;;11.20;96.20;;;;;;5049008;28;20057;-67
2024/02/05 04:11:06;;;;;;;6.20;2.45;;;11.20;96.20;;;;;;5049352;28;20032;-68
2024/02/05 04:13:31;;;;;;;9.32;2.25;;;11.20;96.20;;;;;;5046462;28;20072;-66
2024/02/05 04:15:57;;;;;;;12.77;3.95;;;11.20;96.20;;;;;;5047975;28;20087;-68
2024/02/05 04:18:23;;;;;;;17.23;4.65;;;11.20;96.20;;;;;;5048433;28;20033;-67
2024/02/05 04:20:52;;;;;;;10.90;3.80;;;11.10;96.20;;;;;;5048024;28;20055;-66
2024/02/05 04:23:19;;;;;;;12.13;3.80;;;11.10;96.20;;;;;;5047453;28;20029;-67
2024/02/05 04:25:44;;;;;;;8.45;2.92;;;11.10;96.20;;;;;;5047826;28;20052;-66
2024/02/05 04:28:10;;;;;;;14.15;3.72;;;11.20;96.30;;;;;;5048960;28;20060;-66
2024/02/05 04:30:37;;;;;;;9.70;3.15;;;11.10;96.10;;;;;;5048789;28;20032;-66
2024/02/05 04:33:03;;;;;;;5.65;2.67;;;11.10;96.10;;;;;;5045492;28;20029;-67
2024/02/05 04:35:29;;;;;;;11.05;3.13;;;11.20;96.20;;;;;;5043874;28;20028;-67
2024/02/05 04:37:54;;;;;;;10.93;2.92;;;11.20;96.10;;;;;;5048077;28;20021;-67
2024/02/05 04:40:20;;;;;;;8.30;2.63;;;11.20;96.10;;;;;;5047144;28;20298;-68
2024/02/05 04:42:45;;;;;;;11.00;3.00;;;11.20;96.10;;;;;;5047345;28;20514;-67
2024/02/05 04:45:12;;;;;;;12.63;3.65;;;11.20;96.00;;;;;;5047287;28;20503;-66
2024/02/05 04:47:38;;;;;;;12.40;3.80;;;11.20;96.10;;;;;;5045888;28;20535;-67
2024/02/05 04:50:04;;;;;;;11.05;3.47;;;11.20;96.00;;;;;;5042950;28;20055;-67
2024/02/05 04:52:29;;;;;;;14.40;4.18;;;11.20;96.00;;;;;;5046640;28;20021;-66
2024/02/05 04:54:55;;;;;;;8.55;2.97;;;11.10;95.90;;;;;;5044518;28;20605;-66
2024/02/05 04:57:21;;;;;;;10.95;3.65;;;11.20;96.00;;;;;;5046600;28;20493;-68
2024/02/05 04:59:48;;;;;;;14.00;4.50;;;11.10;95.90;;;;;;5047985;28;20029;-67
2024/02/05 05:02:13;;;;;;;11.63;3.50;;;11.10;95.80;;;;;;5047644;28;20033;-68
2024/02/05 05:04:42;;;;;;;12.95;3.92;;;11.10;95.80;;;;;;5045012;28;20518;-66
2024/02/05 05:07:08;;;;;;;16.13;3.80;;;11.00;95.80;;;;;;5042570;28;20099;-68
2024/02/05 05:09:33;;;;;;;11.23;2.80;;;11.10;96.10;;;;;;5044872;28;20489;-67
2024/02/05 05:11:59;;;;;;;9.43;3.08;;;11.10;95.80;;;;;;5045258;28;20503;-67
2024/02/05 05:14:24;;;;;;;11.43;3.38;;;11.10;95.90;;;;;;5042334;28;20033;-67
2024/02/05 05:16:50;;;;;;;8.48;2.83;;;11.00;95.80;;;;;;5047614;28;20155;-67
2024/02/05 05:19:15;;;;;;;12.82;3.47;;;11.00;95.80;;;;;;5047986;28;20491;-66
2024/02/05 05:21:41;;;;;;;6.72;2.40;;;11.10;95.90;;;;;;5047495;28;20029;-65
2024/02/05 05:24:07;;;;;;;9.00;2.70;;;11.00;95.90;;;;;;5046767;28;20067;-65
2024/02/05 05:26:32;;;;;;;8.00;2.50;;;11.10;96.20;;;;;;5047261;28;20486;-66
2024/02/05 05:28:58;;;;;;;12.75;3.13;;;11.10;95.80;;;;;;5044963;28;20052;-65
2024/02/05 05:31:24;;;;;;;7.43;2.85;;;11.00;95.80;;;;;;5047905;28;20052;-66
2024/02/05 05:33:49;;;;;;;14.13;2.92;;;11.10;95.90;;;;;;5047734;28;20495;-65
2024/02/05 05:36:15;;;;;;;9.10;3.33;;;11.00;95.80;;;;;;5047431;28;20037;-66
2024/02/05 05:38:40;;;;;;;13.25;3.15;;;11.00;95.80;;;;;;5047291;28;20064;-65
2024/02/05 05:41:06;;;;;;;7.57;2.47;;;11.00;95.80;;;;;;5048146;28;20142;-66
2024/02/05 05:43:31;;;;;;;10.43;2.83;;;11.00;95.80;;;;;;5048384;28;20021;-66
2024/02/05 05:45:57;;;;;;;12.63;3.30;;;11.00;95.80;;;;;;5043659;28;20449;-66
2024/02/05 05:48:23;;;;;;;9.55;2.95;;;11.00;95.70;;;;;;5047653;28;20079;-66
2024/02/05 05:50:49;;;;;;;9.25;3.05;;;11.00;95.70;;;;;;5046633;28;20220;-67
2024/02/05 05:53:14;;;;;;;11.98;3.50;;;11.00;95.60;;;;;;5047483;28;20078;-67
2024/02/05 05:55:42;;;;;;;11.00;3.88;;;11.00;95.60;;;;;;5047021;28;20036;-67
2024/02/05 05:58:07;;;;;;;13.68;3.42;;;11.00;95.60;;;;;;5047713;28;20409;-67
2024/02/05 06:00:33;;;;;;;9.38;2.72;;;10.90;95.60;;;;;;5046800;28;20060;-67
2024/02/05 06:02:59;;;;;;;13.07;3.35;;;10.90;95.50;;;;;;5047972;28;20033;-66
2024/02/05 06:05:24;;;;;;;10.73;3.10;;;10.80;95.60;;;;;;5047355;28;20075;-67
2024/02/05 06:07:50;;;;;;;8.93;3.15;;;10.90;95.70;;;;;;5043370;28;20029;-67
2024/02/05 06:10:15;;;;;;;11.20;3.13;;;10.90;95.60;;;;;;5046614;28;20446;-66
2024/02/05 06:12:44;;;;;;;8.82;2.30;;;10.90;95.50;;;;;;5045120;28;20116;-66
2024/02/05 06:15:10;;;;;;;6.75;2.33;;;10.90;95.60;;;;;;5044531;28;20542;-66
2024/02/05 06:17:35;;;;;;;5.75;2.30;;;11.00;95.50;;;;;;5045513;28;20027;-66
2024/02/05 06:20:02;;;;;;;7.53;2.40;;;11.00;95.80;;;;;;5048969;28;20021;-67
2024/02/05 06:22:28;;;;;;;9.38;3.00;;;11.00;95.50;;;;;;5051377;28;20535;-66
2024/02/05 06:24:53;;;;;;;11.40;2.90;;;11.00;95.40;;;;;;5047342;28;20124;-68
2024/02/05 06:27:19;;;;;;;7.72;2.53;;;10.90;95.40;;;;;;5041161;28;20024;-67
2024/02/05 06:29:44;;;;;;;9.32;2.53;;;10.90;95.40;;;;;;5049057;28;20025;-66
2024/02/05 06:32:10;;;;;;;10.65;3.03;;;10.90;95.30;;;;;;5049372;28;20025;-66
2024/02/05 06:34:35;;;;;;;14.90;3.67;;;10.90;95.30;;;;;;5050988;28;20082;-67
2024/02/05 06:37:01;;;;;;;12.20;3.75;;;10.90;95.10;;;;;;5049775;28;20543;-68
2024/02/05 06:39:26;;;;;;;5.07;2.28;;;10.80;95.10;;;;;;5050269;28;20108;-68
2024/02/05 06:41:53;;;;;;;13.95;3.58;;;10.80;95.20;;;;;;5049593;28;20112;-68
2024/02/05 06:44:19;;;;;;;14.00;3.40;;;10.80;95.10;;;;;;5046922;28;20028;-69
2024/02/05 06:46:44;;;;;;;13.35;3.30;;;10.80;95.10;;;;;;5048912;28;20025;-66
2024/02/05 06:49:10;;;;;;;8.13;3.30;;;10.80;95.00;;;;;;5047077;28;20029;-66
2024/02/05 06:51:36;;;;;;;11.13;3.70;;;10.70;95.00;;;;;;5049490;28;20021;-67
2024/02/05 06:54:01;;;;;;;11.55;3.38;;;10.80;95.00;;;;;;5051090;28;20459;-68
2024/02/05 06:56:27;;;;;;;10.35;3.13;;;10.80;95.00;;;;;;5048842;28;20032;-67
2024/02/05 06:58:52;;;;;;;13.02;3.22;;;10.80;95.30;;;;;;5049160;28;20021;-68
2024/02/05 07:01:19;;;;;;;10.50;2.80;;;10.80;94.90;;;;;;5044826;28;20021;-67
2024/02/05 07:03:44;;;;;;;10.15;3.08;;;10.70;94.90;;;;;;5049342;28;20211;-68
2024/02/05 07:06:10;;;;;;;7.80;3.50;;;10.70;94.90;;;;;;5052265;28;20104;-68
2024/02/05 07:08:35;;;;;;;8.07;2.55;;;10.80;94.90;;;;;;5048853;28;20040;-67
2024/02/05 07:11:01;;;;;;;8.88;3.13;;;10.80;94.90;;;;;;5050702;28;20119;-68
2024/02/05 07:13:26;;;;;;;9.48;3.17;;;10.80;94.90;;;;;;5049187;28;20036;-68
2024/02/05 07:15:52;;;;;;;9.20;2.80;;;10.80;94.70;;;;;;5048828;28;20040;-68
2024/02/05 07:18:18;;;;;;;12.45;3.20;;;10.80;94.80;;;;;;5050128;28;20519;-68
2024/02/05 07:20:43;;;;;;;10.98;3.30;;;10.80;94.80;;;;;;5045295;28;20031;-67
2024/02/05 07:23:09;;;;;;;8.45;3.00;;;10.80;94.80;;;;;;5050177;28;20025;-67
2024/02/05 07:25:39;;;;;;;7.40;2.95;;;10.80;94.80;;;;;;5046581;28;20031;-68
2024/02/05 07:28:05;;;;;;;10.48;2.80;;;10.80;94.70;;;;;;5045759;28;20017;-69
2024/02/05 07:30:32;;;;;;;9.10;3.03;;;10.80;94.70;;;;;;5043145;28;20556;-68
2024/02/05 07:32:58;;;;;;;11.63;2.80;;;10.80;94.70;;;;;;5048906;28;20028;-68
2024/02/05 07:35:23;;;;;;;9.05;3.25;;;10.70;94.70;;;;;;5048695;28;20040;-68
2024/02/05 07:37:49;;;;;;;8.68;3.08;;;10.70;94.60;;;;;;5051045;28;20474;-67
2024/02/05 07:40:15;;;;;;;15.45;3.63;;;10.70;94.50;;;;;;5049766;28;20588;-67
2024/02/05 07:42:41;;;;;;;11.95;3.65;;;10.70;94.60;;;;;;5046135;28;20029;-68
2024/02/05 07:45:06;;;;;;;10.48;3.33;;;10.70;94.50;;;;;;5055029;28;20643;-68
2024/02/05 07:47:32;;;;;;;8.15;2.80;;;10.70;94.50;;;;;;5052880;28;20027;-67
2024/02/05 07:49:57;;;;;;;7.90;2.60;;;10.70;94.50;;;;;;5052180;28;20070;-68
2024/02/05 07:52:23;;;;;;;12.35;3.45;;;10.70;94.50;;;;;;5050507;28;20029;-68
2024/02/05 07:54:49;;;;;;;7.63;2.80;;;10.70;94.40;;;;;;5052825;28;20033;-68
2024/02/05 07:57:14;;;;;;;9.90;3.20;;;10.70;94.50;;;;;;5054294;28;20090;-67
2024/02/05 07:59:40;;;;;;;8.38;2.83;;;10.70;94.40;;;;;;5046359;28;20032;-67
2024/02/05 08:02:06;;;;;;;9.68;3.10;;;10.70;94.40;;;;;;5044084;28;20030;-68
2024/02/05 08:04:32;;;;;;;10.05;3.20;;;10.70;94.40;;;;;;5046077;28;20253;-68
2024/02/05 08:06:59;;;;;;;9.88;3.53;;;10.70;94.40;;;;;;5047322;28;20514;-68
2024/02/05 08:09:25;;;;;;;10.88;3.10;;;10.70;94.40;;;;;;5049937;28;20017;-68
2024/02/05 08:11:51;;;;;;;11.10;3.00;;;10.70;94.40;;;;;;5049939;28;20124;-68
2024/02/05 08:14:17;;;;;;;11.23;3.08;;;10.70;94.40;;;;;;5050505;28;20117;-68
2024/02/05 08:16:43;;;;;;;9.43;2.95;;;10.70;94.30;;;;;;5044371;28;20021;-67
2024/02/05 08:19:09;;;;;;;12.90;3.25;;;10.70;94.60;;;;;;5047679;28;20031;-67
2024/02/05 08:21:38;;;;;;;10.45;3.15;;;10.70;94.20;;;;;;5048230;28;20104;-67
2024/02/05 08:24:04;;;;;;;15.85;3.40;;;10.70;94.20;;;;;;5049310;28;20200;-68
2024/02/05 08:26:33;;;;;;;9.43;2.47;;;10.70;94.20;;;;;;5049426;28;20028;-68
2024/02/05 08:28:58;;;;;;;12.70;3.42;;;10.70;94.20;;;;;;5048810;28;20078;-68
2024/02/05 08:31:24;;;;;;;7.75;3.13;;;10.70;94.10;;;;;;5047821;28;20029;-69
2024/02/05 08:33:49;;;;;;;8.90;2.88;;;10.70;94.00;;;;;;5048553;28;20029;-68
2024/02/05 08:36:17;;;;;;;8.18;2.83;;;10.70;94.20;;;;;;5044562;28;20428;-68
2024/02/05 08:38:42;;;;;;;8.15;2.80;;;10.70;94.20;;;;;;5045743;28;20027;-68
2024/02/05 08:41:09;;;;;;;10.63;3.17;;;10.70;94.10;;;;;;5048166;28;20100;-69
2024/02/05 08:43:34;;;;;;;8.80;2.88;;;10.70;94.10;;;;;;5048376;28;20065;-68
2024/02/05 08:46:00;;;;;;;7.53;2.60;;;10.70;94.10;;;;;;5048215;28;20039;-68
2024/02/05 08:48:25;;;;;;;9.38;2.53;;;10.80;94.10;;;;;;5046810;28;20645;-69
2024/02/05 08:50:51;;;;;;;12.70;4.15;;;10.80;94.00;;;;;;5047407;28;20108;-68
2024/02/05 08:53:18;;;;;;;7.50;2.30;;;10.70;94.00;;;;;;5048258;28;20063;-68
2024/02/05 08:55:44;;;;;;;9.52;3.33;;;10.80;94.00;;;;;;5040872;28;20476;-68
2024/02/05 08:58:10;;;;;;;9.30;3.20;;;10.70;93.90;;;;;;5047604;28;20103;-68
2024/02/05 09:00:36;;;;;;;9.88;2.92;;;10.80;93.90;;;;;;5048013;28;20104;-68
2024/02/05 09:03:02;;;;;;;11.98;3.15;;;10.80;93.90;;;;;;5045528;28;20037;-68
2024/02/05 09:05:28;;;;;;;11.73;3.55;;;10.80;93.80;;;;;;5045992;28;20478;-67
2024/02/05 09:07:54;;;;;;;11.38;3.22;;;10.80;93.80;;;;;;5047792;28;20025;-68
2024/02/05 09:10:19;;;;;;;11.00;3.20;;;10.70;93.80;;;;;;5044327;28;20059;-68
2024/02/05 09:12:45;;;;;;;10.20;2.80;;;10.80;93.80;;;;;;5046376;28;20187;-68
2024/02/05 09:15:11;;;;;;;19.30;3.70;;;10.80;93.70;;;;;;5045452;28;20108;-68
2024/02/05 09:17:37;;;;;;;17.40;4.25;;;10.70;93.50;;;;;;5047253;28;20147;-68
2024/02/05 09:20:03;;;;;;;8.40;3.30;;;10.70;93.50;;;;;;5046452;28;20754;-68
2024/02/05 09:22:28;;;;;;;7.72;2.83;;;10.70;93.60;;;;;;5043082;28;20574;-68
2024/02/05 09:24:54;;;;;;;6.47;2.70;;;10.70;93.60;;;;;;5045059;28;20048;-67
2024/02/05 09:27:19;;;;;;;6.97;2.67;;;10.80;93.60;;;;;;5047618;28;20024;-67
2024/02/05 09:29:45;;;;;;;16.00;4.57;;;10.80;93.60;;;;;;5039433;28;20092;-68
2024/02/05 09:32:10;;;;;;;12.00;4.75;;;10.80;93.50;;;;;;5047075;28;20029;-68
2024/02/05 09:34:36;;;;;;;14.02;4.40;;;10.90;93.50;;;;;;5046965;28;20029;-68
2024/02/05 09:37:03;;;;;;;19.40;6.45;;;10.80;93.50;;;;;;5045791;28;20437;-68
2024/02/05 09:39:28;;;;;;;14.48;5.78;;;10.80;93.40;;;;;;5047313;28;20025;-69
2024/02/05 09:41:59;;;;;;;15.90;5.30;;;10.80;93.30;;;;;;5045897;28;20163;-68
2024/02/05 09:44:34;;;;;;;11.88;4.68;;;10.80;93.30;;;;;;5045620;28;20025;-68
2024/02/05 09:47:01;;;;;;;11.75;4.38;;;10.80;93.40;;;;;;5044415;28;20028;-68
2024/02/05 09:49:27;;;;;;;11.40;4.75;;;10.80;93.30;;;;;;5046511;28;20107;-68
2024/02/05 09:51:53;;;;;;;9.40;4.80;;;10.80;93.30;;;;;;5045974;28;20347;-68
2024/02/05 09:54:19;;;;;;;11.75;5.57;;;10.80;93.20;;;;;;5050225;28;20577;-68
2024/02/05 09:56:46;;;;;;;9.25;3.60;;;10.80;93.10;;;;;;5050728;28;20384;-67
2024/02/05 09:59:12;;;;;;;14.82;5.78;;;10.80;93.20;;;;;;5049994;28;20028;-68
2024/02/05 10:01:38;;;;;;;15.05;5.90;;;10.80;93.10;;;;;;5051185;28;20025;-68
2024/02/05 10:04:07;;;;;;;16.70;5.45;;;10.80;93.00;;;;;;5050816;28;20108;-67
2024/02/05 10:06:37;;;;;;;14.40;5.05;;;10.80;92.90;;;;;;5049421;28;20025;-68
2024/02/05 10:09:04;;;;;;;9.27;3.78;;;10.70;92.90;;;;;;5047201;28;20031;-68
2024/02/05 10:11:32;;;;;;;13.63;4.18;;;10.80;93.00;;;;;;5054494;28;20029;-67
2024/02/05 10:13:58;;;;;;;12.43;4.70;;;10.90;92.80;;;;;;5050855;28;20029;-69
2024/02/05 10:16:23;;;;;;;12.40;4.93;;;10.90;92.80;;;;;;5050676;28;20083;-69
2024/02/05 10:18:50;;;;;;;13.60;4.53;;;10.90;92.70;;;;;;5050022;28;20037;-68
2024/02/05 10:21:17;;;;;;;15.48;4.97;;;10.80;92.60;;;;;;5051523;28;20426;-68
2024/02/05 10:23:54;;;;;;;11.85;4.40;;;10.80;92.60;;;;;;5049630;28;20025;-68
2024/02/05 10:26:20;;;;;;;9.50;4.07;;;10.80;92.50;;;;;;5053285;28;20017;-68
2024/02/05 10:28:45;;;;;;;14.30;4.38;;;10.80;92.50;;;;;;5042819;28;20390;-68
2024/02/05 10:31:11;;;;;;;13.80;3.58;;;10.90;92.50;;;;;;5048823;28;20040;-67
2024/02/05 10:33:37;;;;;;;12.60;3.50;;;10.90;92.20;;;;;;5050036;28;20021;-68
2024/02/05 10:36:04;;;;;;;12.02;3.58;;;10.80;92.30;;;;;;5049440;28;20032;-68
2024/02/05 10:38:34;;;;;;;6.90;2.90;;;10.90;92.30;;;;;;5047896;28;20035;-67
2024/02/05 10:41:00;;;;;;;6.87;2.70;;;10.90;92.40;;;;;;5050042;28;20099;-68
2024/02/05 10:43:27;;;;;;;9.02;2.72;;;11.00;92.30;;;;;;5050327;28;21498;-67
2024/02/05 10:45:59;;;;;;;12.75;3.75;;;11.00;92.20;;;;;;5049259;28;20063;-68
2024/02/05 10:48:25;;;;;;;8.70;2.80;;;11.00;92.00;;;;;;5048640;28;20440;-68
2024/02/05 10:50:51;;;;;;;13.40;3.53;;;11.10;91.90;;;;;;5046258;28;20061;-66
2024/02/05 10:53:17;;;;;;;12.60;3.60;;;11.10;91.80;;;;;;5047146;28;20029;-67
2024/02/05 10:55:46;;;;;;;13.40;4.15;;;11.10;91.70;;;;;;5047307;28;20044;-67
2024/02/05 10:58:15;;;;;;;12.30;3.95;;;11.10;91.60;;;;;;5049907;28;20488;-67
2024/02/05 11:00:43;;;;;;;8.75;3.20;;;11.10;91.70;;;;;;5052633;28;20488;-68
2024/02/05 11:03:14;;;;;;;9.15;2.92;;;11.00;91.50;;;;;;5048631;28;20021;-67
2024/02/05 11:05:40;;;;;;;8.60;2.75;;;11.10;91.70;;;;;;5045886;28;20032;-66
2024/02/05 11:08:21;;;;;;;13.30;4.05;;;11.10;91.60;;;;;;5049955;28;20013;-67
2024/02/05 11:10:51;;;;;;;13.20;3.63;;;11.10;91.60;;;;;;5047175;28;20542;-68
2024/02/05 11:13:28;;;;;;;9.93;3.42;;;11.10;91.40;;;;;;5044542;28;20056;-67
2024/02/05 11:15:56;;;;;;;13.38;4.53;;;11.10;91.50;;;;;;5045587;28;20033;-67
2024/02/05 11:18:38;;;;;;;11.88;3.45;;;11.10;91.30;;;;;;5049812;28;20025;-68
2024/02/05 11:21:06;;;;;;;10.57;3.10;;;11.10;91.40;;;;;;5048920;28;20056;-68
2024/02/05 11:23:33;;;;;;;13.68;3.53;;;11.10;91.20;;;;;;5050386;28;20020;-67
2024/02/05 11:25:59;;;;;;;13.30;3.20;;;11.10;91.20;;;;;;5045225;28;20920;-68
2024/02/05 11:28:26;;;;;;;8.82;2.60;;;11.20;91.20;;;;;;5049731;28;20021;-67
2024/02/05 11:30:52;;;;;;;16.25;3.30;;;11.30;91.20;;;;;;5046799;28;20357;-68
2024/02/05 11:33:26;;;;;;;17.00;4.60;;;11.30;91.00;;;;;;5049977;28;20028;-68
2024/02/05 11:35:54;;;;;;;14.68;3.33;;;11.30;90.80;;;;;;5046046;28;20033;-68
2024/02/05 11:38:21;;;;;;;10.77;3.45;;;11.30;90.80;;;;;;5040347;28;20017;-68
2024/02/05 11:40:51;;;;;;;11.35;3.40;;;11.40;90.90;;;;;;5046261;28;20548;-69
2024/02/05 11:43:25;;;;;;;9.32;3.13;;;11.40;91.10;;;;;;5046924;28;20365;-68
2024/02/05 11:45:54;;;;;;;12.05;3.40;;;11.50;90.70;;;;;;5045863;28;20434;-67
2024/02/05 11:48:20;;;;;;;9.07;3.20;;;11.50;90.80;;;;;;5047933;28;20470;-67
2024/02/05 11:50:47;;;;;;;6.22;2.58;;;11.60;90.70;;;;;;5046678;28;20434;-67
2024/02/05 11:53:17;;;;;;;8.25;3.00;;;11.60;90.70;;;;;;5044456;28;20028;-66
2024/02/05 11:55:43;;;;;;;10.63;3.20;;;11.70;90.60;;;;;;5039098;28;20608;-67
2024/02/05 11:58:12;;;;;;;14.65;4.07;;;11.60;90.30;;;;;;5045778;28;20399;-68
2024/02/05 12:00:39;;;;;;;8.52;2.70;;;11.60;90.30;;;;;;5048473;28;20177;-67
2024/02/05 12:03:05;;;;;;;11.32;3.47;;;11.60;90.50;;;;;;5046665;28;20044;-67
2024/02/05 12:05:31;;;;;;;10.23;3.67;;;11.60;90.50;;;;;;5040471;28;20033;-67
2024/02/05 12:07:59;;;;;;;12.18;3.40;;;11.60;90.40;;;;;;5039151;28;20037;-68
2024/02/05 12:10:25;;;;;;;11.73;4.35;;;11.60;90.30;;;;;;5048648;28;20028;-67
2024/02/05 12:12:51;;;;;;;13.25;4.20;;;11.70;90.30;;;;;;5050250;28;20028;-68
2024/02/05 12:15:22;;;;;;;10.50;3.42;;;11.60;90.10;;;;;;5048201;28;21741;-69
2024/02/05 12:17:49;;;;;;;8.93;3.50;;;11.70;90.10;;;;;;5046118;28;20044;-68
2024/02/05 12:20:22;;;;;;;11.35;3.58;;;11.70;90.20;;;;;;5048087;28;20750;-67
2024/02/05 12:22:48;;;;;;;7.72;3.00;;;11.80;90.20;;;;;;5042443;28;20373;-68
2024/02/05 12:25:15;;;;;;;10.10;3.10;;;11.90;90.20;;;;;;5048453;28;20021;-68
2024/02/05 12:27:41;;;;;;;10.80;3.40;;;11.90;90.00;;;;;;5047357;28;20082;-68
2024/02/05 12:30:08;;;;;;;12.13;3.80;;;11.90;89.90;;;;;;5050681;28;20029;-67
2024/02/05 12:32:34;;;;;;;13.13;3.90;;;11.90;89.80;;;;;;5048686;28;20029;-68
2024/02/05 12:35:00;;;;;;;12.35;3.50;;;11.90;89.60;;;;;;5047644;28;20399;-67
2024/02/05 12:37:26;;;;;;;12.38;3.75;;;11.90;89.50;;;;;;5049367;28;20051;-67